Thunderstorms From: 15-12-2017 06:00 Until: 16-12-2017 06:00 warning for: Thunderstorms Level: Yellow info button

Although rather usual in this region, locally or potentially dangerous phenomena are expected. (such as local winds, summer thunderstorms, rising streams or high waves) Be aware and pay attention to the latest weather updates, especially if you carry out activities exposed to weather or close to a stream or shoreline. 


Meteo18 Weather Cam more information Meteo18 Weather Cam


warning for Thunderstorms more information blitzortung!


Rain radar more information rain snow radar


Visit our other weather sites:

Template documentation
and downloads

And another site



Weather Underground History page Text

Daily Summary for January 3, 2017 Units:  English    Metric   Both
« Previous Day
Next Day »
Daily Weekly Monthly Yearly Custom
  High: Low: Average:
Temperature: 32.9 °F 27.9 °F 30.2 °F
Dew Point: 31.6 °F 27.1 °F 28.8 °F
Humidity: 97 % 92 % 94 %
Wind Speed: 11 mph 0 mph 3 mph
Wind Gust: 17 mph - -
Wind:- - East
Pressure: 30.5 in 30.4 in -
Precipitation: 0 in    
Historical Graphs
 
 
Tabular Data for January 3, 2017
Time Temperature Dew Point Pressure Wind Wind Speed Wind Gust Humidity Rainfall Rate (Hourly)
00:02 32.9 °F 31.6 °F 30.4 in NE 6 mph 16 mph 95 % 0.01 in
00:12 32.7 °F 31.5 °F 30.4 in NNE 10 mph 17 mph 95 % 0.01 in
00:17 32.7 °F 31.5 °F 30.4 in ENE 3 mph 14 mph 95 % 0.01 in
00:22 32.5 °F 31.3 °F 30.4 in ENE 6 mph 13 mph 95 % 0.01 in
00:27 32.5 °F 31.3 °F 30.4 in ENE 2 mph 12 mph 95 % 0.01 in
00:32 32.5 °F 31.3 °F 30.4 in East 7 mph 12 mph 95 % 0.01 in
00:37 32.4 °F 31.1 °F 30.4 in NE 8 mph 12 mph 95 % 0.01 in
00:42 32.4 °F 30.7 °F 30.4 in NE 3 mph 13 mph 94 % 0 in
00:47 32.2 °F 30.6 °F 30.4 in NNE 5 mph 13 mph 94 % 0 in
00:52 31.8 °F 30 °F 30.4 in NE 6 mph 15 mph 93 % 0 in
00:57 31.8 °F 30 °F 30.4 in NNE 6 mph 15 mph 93 % 0 in
01:02 31.6 °F 29.7 °F 30.4 in ENE 9 mph 15 mph 92 % 0 in
01:12 31.6 °F 29.7 °F 30.4 in NE 5 mph 15 mph 92 % 0 in
01:17 31.6 °F 29.7 °F 30.4 in NE 8 mph 14 mph 92 % 0 in
01:22 31.6 °F 29.8 °F 30.4 in NNE 2 mph 13 mph 93 % 0 in
01:27 31.6 °F 29.8 °F 30.4 in NNE 8 mph 10 mph 93 % 0 in
01:32 31.6 °F 29.8 °F 30.4 in ENE 2 mph 9 mph 93 % 0 in
01:37 31.5 °F 29.7 °F 30.4 in NE 4 mph 9 mph 93 % 0 in
01:42 31.5 °F 29.7 °F 30.4 in NNE 4 mph 10 mph 93 % 0 in
01:47 31.5 °F 29.7 °F 30.4 in NE 5 mph 10 mph 93 % 0 in
01:52 31.5 °F 29.7 °F 30.4 in NE 5 mph 11 mph 93 % 0 in
01:57 31.5 °F 29.7 °F 30.4 in NE 3 mph 12 mph 93 % 0 in
02:02 31.5 °F 29.7 °F 30.4 in NE 3 mph 12 mph 93 % 0 in
02:12 31.5 °F 29.7 °F 30.4 in NE 6 mph 10 mph 93 % 0 in
02:17 31.3 °F 29.5 °F 30.4 in NE 2 mph 10 mph 93 % 0 in
02:22 31.3 °F 29.5 °F 30.4 in NE 8 mph 10 mph 93 % 0 in
02:32 30.9 °F 28.9 °F 30.4 in NNE 9 mph 11 mph 92 % 0 in
02:37 30.7 °F 28.8 °F 30.4 in NE 1 mph 13 mph 92 % 0 in
02:42 30.7 °F 28.8 °F 30.4 in NE 6 mph 13 mph 92 % 0 in
02:47 30.7 °F 28.8 °F 30.4 in NE 5 mph 11 mph 92 % 0 in
02:52 30.7 °F 28.8 °F 30.4 in NE 8 mph 16 mph 92 % 0 in
02:57 30.7 °F 28.8 °F 30.4 in NNE 8 mph 16 mph 92 % 0 in
03:02 30.7 °F 28.8 °F 30.4 in NNE 11 mph 13 mph 92 % 0 in
03:07 30.7 °F 28.8 °F 30.4 in NNE 8 mph 12 mph 92 % 0 in
03:12 30.7 °F 28.8 °F 30.4 in NNE 6 mph 13 mph 92 % 0 in
03:17 30.6 °F 28.6 °F 30.4 in NE 7 mph 13 mph 92 % 0 in
03:22 30.6 °F 28.6 °F 30.4 in NE 6 mph 13 mph 92 % 0 in
03:27 30.6 °F 28.6 °F 30.4 in ENE 1 mph 13 mph 92 % 0 in
03:32 30.6 °F 28.6 °F 30.4 in NNE 6 mph 12 mph 92 % 0 in
03:37 30.6 °F 28.6 °F 30.4 in NNE 4 mph 12 mph 92 % 0 in
03:42 30.6 °F 28.8 °F 30.4 in NNE 5 mph 12 mph 93 % 0 in
03:47 30.6 °F 28.8 °F 30.4 in ENE 6 mph 10 mph 93 % 0 in
03:52 30.4 °F 28.6 °F 30.4 in NE 7 mph 12 mph 93 % 0 in
03:57 30.6 °F 28.8 °F 30.4 in NNE 5 mph 12 mph 93 % 0 in
04:02 30.4 °F 28.6 °F 30.4 in NE 6 mph 12 mph 93 % 0 in
04:12 30.6 °F 28.8 °F 30.4 in NE 4 mph 14 mph 93 % 0 in
04:17 30.4 °F 28.4 °F 30.4 in NE 9 mph 14 mph 92 % 0 in
04:22 30.4 °F 28.6 °F 30.4 in North 4 mph 15 mph 93 % 0 in
04:27 30.4 °F 28.6 °F 30.4 in NNE 4 mph 15 mph 93 % 0 in
04:32 30.4 °F 28.6 °F 30.4 in NW 5 mph 11 mph 93 % 0 in
04:37 30.4 °F 28.4 °F 30.4 in NNE 5 mph 11 mph 92 % 0 in
04:42 30.2 °F 28.2 °F 30.4 in NNE 6 mph 12 mph 92 % 0 in
04:47 30 °F 28.2 °F 30.4 in NNE 3 mph 12 mph 93 % 0 in
04:52 30 °F 28 °F 30.4 in NE 2 mph 12 mph 92 % 0 in
04:57 30 °F 28.2 °F 30.4 in NNE 4 mph 11 mph 93 % 0 in
05:02 30 °F 28.2 °F 30.4 in North 4 mph 11 mph 93 % 0 in
05:07 30 °F 28.2 °F 30.4 in NNE 5 mph 11 mph 93 % 0 in
05:12 30 °F 28.2 °F 30.4 in NE 6 mph 10 mph 93 % 0 in
05:17 30 °F 28.2 °F 30.4 in NE 6 mph 10 mph 93 % 0 in
05:22 30.2 °F 28.4 °F 30.4 in NE 4 mph 10 mph 93 % 0 in
05:27 30.2 °F 28.4 °F 30.4 in ENE 2 mph 8 mph 93 % 0 in
05:32 30.2 °F 28.4 °F 30.4 in North 2 mph 9 mph 93 % 0 in
05:42 30 °F 28.2 °F 30.4 in NNE 2 mph 11 mph 93 % 0 in
05:47 30 °F 28.2 °F 30.4 in NE 6 mph 11 mph 93 % 0 in
05:52 30 °F 28.2 °F 30.4 in NNW 2 mph 12 mph 93 % 0 in
05:57 30 °F 28.2 °F 30.4 in NNE 4 mph 12 mph 93 % 0 in
06:02 30 °F 28.2 °F 30.4 in North 2 mph 12 mph 93 % 0 in
06:12 29.8 °F 28 °F 30.4 in North 6 mph 12 mph 93 % 0 in
06:17 30 °F 28.2 °F 30.4 in East 3 mph 12 mph 93 % 0 in
06:22 30 °F 28.2 °F 30.4 in NE 5 mph 12 mph 93 % 0 in
06:27 30 °F 28.2 °F 30.4 in NE 4 mph 9 mph 93 % 0 in
06:32 29.8 °F 28 °F 30.4 in NE 9 mph 11 mph 93 % 0 in
06:37 29.8 °F 28 °F 30.4 in NNE 10 mph 13 mph 93 % 0 in
06:42 29.8 °F 28 °F 30.4 in NNE 7 mph 13 mph 93 % 0 in
06:52 29.7 °F 27.9 °F 30.4 in NE 7 mph 12 mph 93 % 0 in
06:57 29.7 °F 27.9 °F 30.4 in NNE 5 mph 12 mph 93 % 0 in
07:02 29.7 °F 27.9 °F 30.4 in NNE 4 mph 12 mph 93 % 0 in
07:12 29.7 °F 28.2 °F 30.4 in NNE 5 mph 12 mph 94 % 0 in
07:17 29.8 °F 28.4 °F 30.4 in NE 7 mph 11 mph 94 % 0 in
07:22 29.7 °F 28.2 °F 30.4 in ENE 3 mph 11 mph 94 % 0 in
07:27 29.8 °F 28.4 °F 30.4 in NE 3 mph 9 mph 94 % 0 in
07:32 29.8 °F 28.4 °F 30.4 in NNE 5 mph 9 mph 94 % 0 in
07:37 29.7 °F 28.2 °F 30.4 in NNE 8 mph 9 mph 94 % 0 in
07:42 29.7 °F 28.2 °F 30.4 in NE 1 mph 9 mph 94 % 0 in
07:47 29.7 °F 28.2 °F 30.4 in NE 2 mph 9 mph 94 % 0 in
07:52 29.7 °F 28.2 °F 30.4 in East 4 mph 9 mph 94 % 0 in
07:57 29.7 °F 28.2 °F 30.4 in NNE 5 mph 10 mph 94 % 0 in
08:02 29.7 °F 28.2 °F 30.4 in NNE 5 mph 10 mph 94 % 0 in
08:12 29.7 °F 28.4 °F 30.4 in NE 3 mph 9 mph 95 % 0 in
08:17 29.7 °F 28.4 °F 30.4 in North 1 mph 9 mph 95 % 0 in
08:22 29.5 °F 28.2 °F 30.4 in NNE 3 mph 11 mph 95 % 0 in
08:27 29.5 °F 28.2 °F 30.4 in NNE 3 mph 11 mph 95 % 0 in
08:32 29.5 °F 28.2 °F 30.4 in NE 5 mph 11 mph 95 % 0 in
08:42 29.5 °F 28.2 °F 30.4 in NE 2 mph 8 mph 95 % 0 in
08:52 29.3 °F 27.9 °F 30.4 in NNW 3 mph 13 mph 94 % 0 in
08:57 29.1 °F 27.9 °F 30.4 in ENE 9 mph 13 mph 95 % 0 in
09:02 29.1 °F 27.9 °F 30.4 in NNE 3 mph 13 mph 95 % 0 in
09:07 29.1 °F 27.9 °F 30.4 in North 8 mph 11 mph 95 % 0 in
09:12 29.1 °F 27.9 °F 30.4 in NE 2 mph 11 mph 95 % 0 in
09:17 29.1 °F 27.9 °F 30.4 in NE 5 mph 12 mph 95 % 0 in
09:22 29.1 °F 27.9 °F 30.4 in NE 3 mph 12 mph 95 % 0 in
09:27 29.3 °F 28 °F 30.4 in NE 7 mph 12 mph 95 % 0 in
09:32 29.3 °F 28 °F 30.4 in ENE 2 mph 10 mph 95 % 0 in
09:37 29.5 °F 28.2 °F 30.4 in NNW 2 mph 8 mph 95 % 0 in
09:42 29.5 °F 28.2 °F 30.4 in NNE 2 mph 8 mph 95 % 0 in
09:47 29.5 °F 28.2 °F 30.4 in Calm   6 mph 95 % 0 in
09:52 29.5 °F 28.2 °F 30.4 in NNE 3 mph 6 mph 95 % 0 in
09:57 29.7 °F 28.4 °F 30.4 in NE 3 mph 6 mph 95 % 0 in
10:02 29.7 °F 28.4 °F 30.4 in ESE 1 mph 6 mph 95 % 0 in
10:07 29.7 °F 28.4 °F 30.4 in NE 5 mph 8 mph 95 % 0 in
10:12 29.7 °F 28.4 °F 30.4 in Calm   8 mph 95 % 0 in
10:17 29.7 °F 28.4 °F 30.4 in NE 3 mph 8 mph 95 % 0 in
10:22 29.7 °F 28.4 °F 30.4 in NNE 3 mph 7 mph 95 % 0 in
10:27 29.8 °F 28.6 °F 30.4 in NNE 3 mph 6 mph 95 % 0 in
10:32 29.8 °F 28.6 °F 30.4 in Calm   6 mph 95 % 0 in
10:42 29.8 °F 28.6 °F 30.4 in NNE 2 mph 6 mph 95 % 0 in
10:47 29.8 °F 28.6 °F 30.4 in NNE 3 mph 5 mph 95 % 0 in
10:52 29.8 °F 28.6 °F 30.4 in North 2 mph 6 mph 95 % 0 in
10:57 29.7 °F 28.4 °F 30.4 in NE 4 mph 8 mph 95 % 0 in
11:02 29.8 °F 28.6 °F 30.4 in Calm   9 mph 95 % 0 in
11:07 29.7 °F 28.4 °F 30.4 in NNE 4 mph 9 mph 95 % 0 in
11:12 29.7 °F 28.4 °F 30.4 in NE 2 mph 9 mph 95 % 0 in
11:22 29.7 °F 28.4 °F 30.4 in NW 1 mph 8 mph 95 % 0 in
11:32 29.8 °F 28.6 °F 30.5 in NNW 3 mph 8 mph 95 % 0 in
11:37 29.8 °F 28.6 °F 30.5 in Calm   7 mph 95 % 0 in
11:42 29.8 °F 28.6 °F 30.5 in NNE 4 mph 6 mph 95 % 0 in
11:47 29.8 °F 28.6 °F 30.4 in NNE 1 mph 8 mph 95 % 0 in
11:52 30 °F 28.8 °F 30.5 in NNE 3 mph 8 mph 95 % 0 in
11:57 30 °F 28.8 °F 30.5 in NNE 4 mph 8 mph 95 % 0 in
12:02 30 °F 28.8 °F 30.4 in WNW 1 mph 7 mph 95 % 0 in
12:07 30.2 °F 28.9 °F 30.4 in North 2 mph 7 mph 95 % 0 in
12:12 30.2 °F 28.9 °F 30.4 in NNW 3 mph 6 mph 95 % 0 in
12:17 30.2 °F 28.8 °F 30.4 in NE 5 mph 6 mph 94 % 0 in
12:22 30 °F 28.6 °F 30.4 in NE 2 mph 6 mph 94 % 0 in
12:32 30.2 °F 28.8 °F 30.4 in ENE 2 mph 8 mph 94 % 0 in
12:42 30.4 °F 28.9 °F 30.4 in NNE 1 mph 7 mph 94 % 0 in
12:47 30.6 °F 29.1 °F 30.4 in NNE 2 mph 5 mph 94 % 0 in
12:52 30.6 °F 28.8 °F 30.4 in NE 2 mph 5 mph 93 % 0 in
12:57 30.6 °F 28.8 °F 30.4 in ENE 2 mph 6 mph 93 % 0 in
13:02 30.6 °F 28.8 °F 30.4 in NE 2 mph 6 mph 93 % 0 in
13:07 30.7 °F 28.9 °F 30.4 in NNE 2 mph 5 mph 93 % 0 in
13:17 30.9 °F 29.1 °F 30.4 in NNE 3 mph 6 mph 93 % 0 in
13:22 30.7 °F 28.9 °F 30.4 in North 3 mph 7 mph 93 % 0 in
13:27 30.9 °F 29.1 °F 30.4 in NNW 4 mph 7 mph 93 % 0 in
13:37 31.3 °F 29.5 °F 30.4 in NE 3 mph 8 mph 93 % 0 in
13:42 31.3 °F 29.5 °F 30.4 in NE 4 mph 7 mph 93 % 0 in
13:47 31.3 °F 29.5 °F 30.4 in NW 3 mph 7 mph 93 % 0 in
13:52 31.3 °F 29.5 °F 30.4 in NNE 2 mph 7 mph 93 % 0 in
13:57 31.5 °F 29.7 °F 30.4 in North 7 mph 7 mph 93 % 0 in
14:02 31.5 °F 29.5 °F 30.4 in NE 1 mph 8 mph 92 % 0 in
14:07 31.5 °F 29.7 °F 30.4 in NNE 4 mph 8 mph 93 % 0 in
14:12 31.6 °F 29.8 °F 30.4 in NNE 2 mph 8 mph 93 % 0 in
14:17 31.8 °F 30 °F 30.4 in NNW 3 mph 6 mph 93 % 0 in
14:22 31.6 °F 29.7 °F 30.4 in North 3 mph 6 mph 92 % 0 in
14:27 31.6 °F 29.7 °F 30.4 in NW 3 mph 6 mph 92 % 0 in
14:32 31.5 °F 29.7 °F 30.4 in NNE 5 mph 7 mph 93 % 0 in
14:37 31.6 °F 29.8 °F 30.4 in NNE 3 mph 7 mph 93 % 0 in
14:42 31.6 °F 29.8 °F 30.4 in NNW 2 mph 7 mph 93 % 0 in
14:47 31.6 °F 29.8 °F 30.4 in North 1 mph 7 mph 93 % 0 in
14:52 31.8 °F 30 °F 30.4 in Calm   7 mph 93 % 0 in
14:57 31.8 °F 29.8 °F 30.4 in NW 2 mph 7 mph 92 % 0 in
15:02 31.6 °F 29.7 °F 30.4 in NE 2 mph 5 mph 92 % 0 in
15:12 31.6 °F 29.7 °F 30.4 in NE 4 mph 5 mph 92 % 0 in
15:17 31.5 °F 29.5 °F 30.4 in NNE 1 mph 6 mph 92 % 0 in
15:22 31.5 °F 29.5 °F 30.4 in Calm   6 mph 92 % 0 in
15:27 31.5 °F 29.5 °F 30.4 in ENE 3 mph 6 mph 92 % 0 in
15:32 31.5 °F 29.5 °F 30.4 in ENE 2 mph 4 mph 92 % 0 in
15:37 31.3 °F 29.3 °F 30.4 in Calm   4 mph 92 % 0 in
15:42 31.5 °F 29.7 °F 30.4 in ENE 1 mph 4 mph 93 % 0 in
15:47 31.5 °F 29.5 °F 30.4 in NNE 1 mph 4 mph 92 % 0 in
15:52 31.5 °F 29.5 °F 30.4 in NNE 1 mph 3 mph 92 % 0 in
15:57 31.5 °F 29.7 °F 30.4 in North 2 mph 3 mph 93 % 0 in
16:02 31.5 °F 29.7 °F 30.4 in NNW 3 mph 5 mph 93 % 0 in
16:07 31.5 °F 29.7 °F 30.4 in NNE 2 mph 5 mph 93 % 0 in
16:12 31.5 °F 29.7 °F 30.4 in NNE 2 mph 5 mph 93 % 0 in
16:17 31.3 °F 29.5 °F 30.4 in NNW 1 mph 4 mph 93 % 0 in
16:22 31.3 °F 29.5 °F 30.4 in NNE 1 mph 4 mph 93 % 0 in
16:27 31.3 °F 29.5 °F 30.4 in Calm   4 mph 93 % 0 in
16:32 31.3 °F 29.5 °F 30.4 in WNW 1 mph 3 mph 93 % 0 in
16:37 31.1 °F 29.3 °F 30.4 in NW 1 mph 3 mph 93 % 0 in
16:42 31.1 °F 29.3 °F 30.4 in NNE 1 mph 2 mph 93 % 0 in
16:47 31.1 °F 29.3 °F 30.4 in NE 4 mph 5 mph 93 % 0 in
16:52 30.9 °F 29.1 °F 30.4 in Calm   5 mph 93 % 0 in
16:57 30.7 °F 28.9 °F 30.4 in Calm   5 mph 93 % 0 in
17:07 30.7 °F 28.9 °F 30.4 in Calm   3 mph 93 % 0 in
17:12 30.7 °F 28.9 °F 30.4 in NE 1 mph 3 mph 93 % 0 in
17:17 30.6 °F 28.8 °F 30.4 in NW 1 mph 3 mph 93 % 0 in
17:27 30.6 °F 29.1 °F 30.4 in Calm   2 mph 94 % 0 in
17:37 30.6 °F 29.1 °F 30.4 in North 2 mph 4 mph 94 % 0 in
17:47 30.4 °F 28.9 °F 30.4 in Calm   4 mph 94 % 0 in
17:52 30.6 °F 29.1 °F 30.4 in NNE 1 mph 4 mph 94 % 0 in
18:02 30.6 °F 29.3 °F 30.4 in NNW 3 mph 4 mph 95 % 0 in
18:07 30.6 °F 29.3 °F 30.4 in Calm   5 mph 95 % 0 in
18:12 30.4 °F 28.9 °F 30.4 in North 2 mph 5 mph 94 % 0 in
18:22 30 °F 28.6 °F 30.4 in NW 1 mph 6 mph 94 % 0 in
18:32 29.8 °F 28.6 °F 30.4 in Calm   2 mph 95 % 0 in
18:37 29.8 °F 28.6 °F 30.4 in Calm   2 mph 95 % 0 in
18:47 29.8 °F 28.6 °F 30.4 in Calm   1 mph 95 % 0 in
18:52 29.8 °F 28.6 °F 30.4 in Calm   1 mph 95 % 0 in
18:57 30 °F 28.8 °F 30.4 in Calm   1 mph 95 % 0 in
19:02 29.8 °F 28.6 °F 30.4 in NNW 1 mph 3 mph 95 % 0 in
19:07 29.8 °F 28.6 °F 30.4 in NNW 1 mph 3 mph 95 % 0 in
19:12 29.8 °F 28.6 °F 30.4 in ENE 3 mph 6 mph 95 % 0 in
19:17 29.7 °F 28.4 °F 30.4 in North 3 mph 6 mph 95 % 0 in
19:22 29.5 °F 28.2 °F 30.4 in NE 3 mph 6 mph 95 % 0 in
19:27 29.5 °F 28.2 °F 30.4 in NE 1 mph 5 mph 95 % 0 in
19:32 29.3 °F 28.2 °F 30.4 in Calm   4 mph 96 % 0 in
19:42 29.5 °F 28.4 °F 30.4 in Calm   3 mph 96 % 0 in
19:47 29.5 °F 28.4 °F 30.4 in ESE 1 mph 3 mph 96 % 0 in
19:52 29.3 °F 28.2 °F 30.4 in Calm   3 mph 96 % 0 in
19:57 29.3 °F 28.2 °F 30.4 in Calm   3 mph 96 % 0 in
20:02 29.5 °F 28.4 °F 30.4 in Calm   1 mph 96 % 0 in
20:07 29.3 °F 28.2 °F 30.4 in Calm   2 mph 96 % 0 in
20:12 29.1 °F 28 °F 30.4 in Calm   2 mph 96 % 0 in
20:17 29.1 °F 28 °F 30.4 in Calm   1 mph 96 % 0 in
20:27 29.1 °F 28 °F 30.4 in Calm   1 mph 96 % 0 in
20:32 29.1 °F 28 °F 30.4 in Calm   1 mph 96 % 0 in
20:42 29.1 °F 28 °F 30.4 in Calm   1 mph 96 % 0 in
20:47 29.1 °F 28 °F 30.4 in Calm     96 % 0 in
20:52 29.1 °F 28 °F 30.4 in Calm   1 mph 96 % 0 in
21:02 28.9 °F 27.9 °F 30.4 in Calm   1 mph 96 % 0 in
21:12 28.9 °F 28.2 °F 30.4 in Calm   1 mph 97 % 0 in
21:17 28.9 °F 28.2 °F 30.4 in Calm   2 mph 97 % 0 in
21:27 28.9 °F 28.2 °F 30.4 in Calm   2 mph 97 % 0 in
21:32 28.8 °F 28 °F 30.4 in Calm   2 mph 97 % 0 in
21:37 28.8 °F 28 °F 30.4 in Calm   2 mph 97 % 0 in
21:42 28.8 °F 28 °F 30.4 in Calm     97 % 0 in
21:47 28.8 °F 28 °F 30.4 in Calm     97 % 0 in
21:52 28.8 °F 28 °F 30.4 in SSW 1 mph 2 mph 97 % 0 in
21:57 28.6 °F 27.9 °F 30.4 in Calm   3 mph 97 % 0 in
22:02 28.6 °F 27.9 °F 30.4 in SSW 1 mph 3 mph 97 % 0 in
22:12 28.6 °F 27.9 °F 30.4 in Calm   2 mph 97 % 0 in
22:17 28.6 °F 27.9 °F 30.4 in Calm   2 mph 97 % 0 in
22:27 28.6 °F 27.9 °F 30.4 in Calm   3 mph 97 % 0 in
22:32 28.6 °F 27.9 °F 30.4 in Calm   3 mph 97 % 0 in
22:42 28.6 °F 27.9 °F 30.4 in South 2 mph 3 mph 97 % 0 in
22:47 28.6 °F 27.9 °F 30.4 in SSW 3 mph 4 mph 97 % 0 in
22:52 28.6 °F 27.9 °F 30.4 in SW 1 mph 7 mph 97 % 0 in
23:02 28.4 °F 27.7 °F 30.4 in SW 3 mph 7 mph 97 % 0 in
23:12 28.2 °F 27.5 °F 30.4 in SSW 3 mph 6 mph 97 % 0 in
23:17 28.2 °F 27.5 °F 30.4 in SW 2 mph 5 mph 97 % 0 in
23:22 28.2 °F 27.5 °F 30.4 in SW 1 mph 5 mph 97 % 0 in
23:27 28.2 °F 27.5 °F 30.4 in SW 4 mph 6 mph 97 % 0 in
23:37 28.2 °F 27.5 °F 30.4 in SSW 2 mph 6 mph 97 % 0 in
23:42 28.2 °F 27.5 °F 30.4 in SW 4 mph 8 mph 97 % 0 in
23:47 28 °F 27.3 °F 30.4 in SW 3 mph 8 mph 97 % 0 in
23:52 27.9 °F 27.1 °F 30.4 in WSW 3 mph 8 mph 97 % 0 in
23:57 27.9 °F 27.1 °F 30.4 in SW 1 mph 8 mph 97 % 0 in
Meteo18
Compliments of Weather Underground - 4 mb

Script developed by  Jim McMurry - jmcmurry@mwt.net Adapted for the template by  Wim van der Kuil - Leuven-Template.eu

You find our weather info also at:

European Weather Network

Weather Underground

Equipment we use:

Weather-station
Davis Vue

Weather-program
Meteohub

Weather-server
Raspberry PI 2 B+

Provider
1 and 1

Davis Vue

Meteohub

Raspberry PI 2 B+

1 and 1